sensor_id;sensor_type;location;lat;lon;timestamp;P1;durP1;ratioP1;P2;durP2;ratioP2
52888;SDS011;41413;52.770;6.892;2023-07-24T00:00:16;286.52;;;273.33;;
52888;SDS011;41413;52.770;6.892;2023-07-24T00:02:43;257.17;;;245.18;;
52888;SDS011;41413;52.770;6.892;2023-07-24T00:05:10;300.80;;;286.38;;
52888;SDS011;41413;52.770;6.892;2023-07-24T00:07:36;284.77;;;271.42;;
52888;SDS011;41413;52.770;6.892;2023-07-24T00:10:03;261.42;;;249.68;;
52888;SDS011;41413;52.770;6.892;2023-07-24T00:12:31;279.75;;;266.55;;
52888;SDS011;41413;52.770;6.892;2023-07-24T00:14:57;274.67;;;261.70;;
52888;SDS011;41413;52.770;6.892;2023-07-24T00:17:24;268.65;;;256.33;;
52888;SDS011;41413;52.770;6.892;2023-07-24T00:19:51;255.95;;;243.95;;
52888;SDS011;41413;52.770;6.892;2023-07-24T00:22:18;284.73;;;271.33;;
52888;SDS011;41413;52.770;6.892;2023-07-24T00:24:45;271.88;;;258.65;;
52888;SDS011;41413;52.770;6.892;2023-07-24T00:27:12;275.42;;;262.40;;
52888;SDS011;41413;52.770;6.892;2023-07-24T00:29:40;285.63;;;271.90;;
52888;SDS011;41413;52.770;6.892;2023-07-24T00:32:06;296.38;;;281.75;;
52888;SDS011;41413;52.770;6.892;2023-07-24T00:34:33;316.73;;;301.58;;
52888;SDS011;41413;52.770;6.892;2023-07-24T00:37:00;244.57;;;232.98;;
52888;SDS011;41413;52.770;6.892;2023-07-24T00:39:27;293.40;;;279.63;;
52888;SDS011;41413;52.770;6.892;2023-07-24T00:41:55;281.02;;;267.25;;
52888;SDS011;41413;52.770;6.892;2023-07-24T00:44:22;261.38;;;248.88;;
52888;SDS011;41413;52.770;6.892;2023-07-24T00:46:49;290.55;;;276.33;;
52888;SDS011;41413;52.770;6.892;2023-07-24T00:49:16;295.73;;;281.58;;
52888;SDS011;41413;52.770;6.892;2023-07-24T00:51:44;283.17;;;269.63;;
52888;SDS011;41413;52.770;6.892;2023-07-24T00:54:11;183.60;;;174.93;;
52888;SDS011;41413;52.770;6.892;2023-07-24T00:56:40;268.88;;;255.77;;
52888;SDS011;41413;52.770;6.892;2023-07-24T00:59:07;255.93;;;243.60;;
52888;SDS011;41413;52.770;6.892;2023-07-24T01:01:34;290.75;;;276.63;;
52888;SDS011;41413;52.770;6.892;2023-07-24T01:04:03;283.10;;;269.13;;
52888;SDS011;41413;52.770;6.892;2023-07-24T01:06:31;287.83;;;273.77;;
52888;SDS011;41413;52.770;6.892;2023-07-24T01:08:58;273.65;;;260.35;;
52888;SDS011;41413;52.770;6.892;2023-07-24T01:11:28;292.92;;;278.85;;
52888;SDS011;41413;52.770;6.892;2023-07-24T01:14:04;280.80;;;266.92;;
52888;SDS011;41413;52.770;6.892;2023-07-24T01:16:46;294.08;;;279.90;;
52888;SDS011;41413;52.770;6.892;2023-07-24T01:19:33;281.50;;;267.80;;
52888;SDS011;41413;52.770;6.892;2023-07-24T01:27:48;299.77;;;285.27;;
52888;SDS011;41413;52.770;6.892;2023-07-24T01:30:17;274.48;;;261.25;;
52888;SDS011;41413;52.770;6.892;2023-07-24T01:32:46;307.98;;;292.35;;
52888;SDS011;41413;52.770;6.892;2023-07-24T01:35:14;303.02;;;288.00;;
52888;SDS011;41413;52.770;6.892;2023-07-24T01:37:41;266.45;;;253.48;;
52888;SDS011;41413;52.770;6.892;2023-07-24T01:40:09;309.63;;;294.40;;
52888;SDS011;41413;52.770;6.892;2023-07-24T01:42:37;262.65;;;250.25;;
52888;SDS011;41413;52.770;6.892;2023-07-24T01:45:04;280.45;;;267.02;;
52888;SDS011;41413;52.770;6.892;2023-07-24T01:47:31;286.58;;;273.02;;
52888;SDS011;41413;52.770;6.892;2023-07-24T01:49:58;284.60;;;270.52;;
52888;SDS011;41413;52.770;6.892;2023-07-24T01:52:25;278.77;;;265.42;;
52888;SDS011;41413;52.770;6.892;2023-07-24T01:54:52;276.23;;;263.08;;
52888;SDS011;41413;52.770;6.892;2023-07-24T01:57:19;280.02;;;266.90;;
52888;SDS011;41413;52.770;6.892;2023-07-24T01:59:46;274.60;;;261.70;;
52888;SDS011;41413;52.770;6.892;2023-07-24T02:02:12;296.15;;;282.10;;
52888;SDS011;41413;52.770;6.892;2023-07-24T02:04:39;283.75;;;270.15;;
52888;SDS011;41413;52.770;6.892;2023-07-24T02:07:06;285.80;;;271.90;;
52888;SDS011;41413;52.770;6.892;2023-07-24T02:09:33;272.20;;;259.05;;
52888;SDS011;41413;52.770;6.892;2023-07-24T02:11:59;278.08;;;264.73;;
52888;SDS011;41413;52.770;6.892;2023-07-24T02:14:28;262.83;;;250.13;;
52888;SDS011;41413;52.770;6.892;2023-07-24T02:16:55;276.50;;;263.45;;
52888;SDS011;41413;52.770;6.892;2023-07-24T02:19:21;266.75;;;253.68;;
52888;SDS011;41413;52.770;6.892;2023-07-24T02:21:48;302.20;;;287.38;;
52888;SDS011;41413;52.770;6.892;2023-07-24T02:24:15;259.08;;;246.55;;
52888;SDS011;41413;52.770;6.892;2023-07-24T02:26:42;316.25;;;300.92;;
52888;SDS011;41413;52.770;6.892;2023-07-24T02:29:09;288.67;;;274.98;;
52888;SDS011;41413;52.770;6.892;2023-07-24T02:31:35;301.50;;;287.02;;
52888;SDS011;41413;52.770;6.892;2023-07-24T02:34:02;262.42;;;249.73;;
52888;SDS011;41413;52.770;6.892;2023-07-24T02:36:29;293.38;;;279.38;;
52888;SDS011;41413;52.770;6.892;2023-07-24T02:38:56;294.42;;;280.05;;
52888;SDS011;41413;52.770;6.892;2023-07-24T02:41:23;283.95;;;270.20;;
52888;SDS011;41413;52.770;6.892;2023-07-24T02:43:50;305.85;;;291.08;;
52888;SDS011;41413;52.770;6.892;2023-07-24T02:46:17;300.83;;;286.20;;
52888;SDS011;41413;52.770;6.892;2023-07-24T02:48:43;276.70;;;263.30;;
52888;SDS011;41413;52.770;6.892;2023-07-24T02:51:10;258.50;;;246.40;;
52888;SDS011;41413;52.770;6.892;2023-07-24T02:53:37;282.40;;;268.38;;
52888;SDS011;41413;52.770;6.892;2023-07-24T02:56:04;300.33;;;285.92;;
52888;SDS011;41413;52.770;6.892;2023-07-24T02:58:30;270.77;;;257.58;;
52888;SDS011;41413;52.770;6.892;2023-07-24T03:01:04;303.13;;;288.77;;
52888;SDS011;41413;52.770;6.892;2023-07-24T03:03:33;277.67;;;264.25;;
52888;SDS011;41413;52.770;6.892;2023-07-24T03:06:01;277.92;;;264.75;;
52888;SDS011;41413;52.770;6.892;2023-07-24T03:08:28;297.80;;;283.50;;
52888;SDS011;41413;52.770;6.892;2023-07-24T03:10:54;279.83;;;266.67;;
52888;SDS011;41413;52.770;6.892;2023-07-24T03:13:21;298.23;;;283.70;;
52888;SDS011;41413;52.770;6.892;2023-07-24T03:15:51;283.05;;;269.48;;
52888;SDS011;41413;52.770;6.892;2023-07-24T03:18:20;276.48;;;263.30;;
52888;SDS011;41413;52.770;6.892;2023-07-24T03:20:46;301.40;;;286.88;;
52888;SDS011;41413;52.770;6.892;2023-07-24T03:23:13;289.75;;;275.88;;
52888;SDS011;41413;52.770;6.892;2023-07-24T03:25:40;268.38;;;255.50;;
52888;SDS011;41413;52.770;6.892;2023-07-24T03:28:07;262.40;;;249.68;;
52888;SDS011;41413;52.770;6.892;2023-07-24T03:30:34;293.13;;;279.35;;
52888;SDS011;41413;52.770;6.892;2023-07-24T03:33:01;303.75;;;289.45;;
52888;SDS011;41413;52.770;6.892;2023-07-24T03:35:28;281.10;;;268.08;;
52888;SDS011;41413;52.770;6.892;2023-07-24T03:37:55;279.15;;;265.45;;
52888;SDS011;41413;52.770;6.892;2023-07-24T03:40:21;301.98;;;287.60;;
52888;SDS011;41413;52.770;6.892;2023-07-24T03:42:48;265.55;;;253.07;;
52888;SDS011;41413;52.770;6.892;2023-07-24T03:45:15;284.92;;;271.40;;
52888;SDS011;41413;52.770;6.892;2023-07-24T03:47:42;242.77;;;231.10;;
52888;SDS011;41413;52.770;6.892;2023-07-24T03:50:09;288.45;;;275.10;;
52888;SDS011;41413;52.770;6.892;2023-07-24T03:52:36;327.05;;;311.10;;
52888;SDS011;41413;52.770;6.892;2023-07-24T03:55:03;338.05;;;321.35;;
52888;SDS011;41413;52.770;6.892;2023-07-24T03:57:30;297.55;;;284.02;;
52888;SDS011;41413;52.770;6.892;2023-07-24T03:59:56;301.42;;;287.35;;
52888;SDS011;41413;52.770;6.892;2023-07-24T04:02:23;311.13;;;296.10;;
52888;SDS011;41413;52.770;6.892;2023-07-24T04:04:50;317.58;;;302.45;;
52888;SDS011;41413;52.770;6.892;2023-07-24T04:07:17;332.00;;;316.30;;
52888;SDS011;41413;52.770;6.892;2023-07-24T04:09:43;297.75;;;283.98;;
52888;SDS011;41413;52.770;6.892;2023-07-24T04:12:10;348.75;;;331.95;;
52888;SDS011;41413;52.770;6.892;2023-07-24T04:14:37;366.58;;;348.98;;
52888;SDS011;41413;52.770;6.892;2023-07-24T04:17:04;334.77;;;319.42;;
52888;SDS011;41413;52.770;6.892;2023-07-24T04:19:32;304.83;;;290.65;;
52888;SDS011;41413;52.770;6.892;2023-07-24T04:21:59;313.42;;;299.10;;
52888;SDS011;41413;52.770;6.892;2023-07-24T04:24:25;320.23;;;305.45;;
52888;SDS011;41413;52.770;6.892;2023-07-24T04:26:53;320.10;;;305.23;;
52888;SDS011;41413;52.770;6.892;2023-07-24T04:29:20;352.50;;;335.95;;
52888;SDS011;41413;52.770;6.892;2023-07-24T04:31:50;311.00;;;296.35;;
52888;SDS011;41413;52.770;6.892;2023-07-24T04:34:16;334.88;;;319.13;;
52888;SDS011;41413;52.770;6.892;2023-07-24T04:36:43;325.65;;;310.10;;
52888;SDS011;41413;52.770;6.892;2023-07-24T04:39:10;375.05;;;357.13;;
52888;SDS011;41413;52.770;6.892;2023-07-24T04:41:37;356.60;;;339.95;;
52888;SDS011;41413;52.770;6.892;2023-07-24T04:44:03;377.00;;;359.02;;
52888;SDS011;41413;52.770;6.892;2023-07-24T04:46:30;357.52;;;340.88;;
52888;SDS011;41413;52.770;6.892;2023-07-24T04:48:58;335.35;;;319.52;;
52888;SDS011;41413;52.770;6.892;2023-07-24T04:51:24;360.30;;;343.30;;
52888;SDS011;41413;52.770;6.892;2023-07-24T04:53:51;363.30;;;346.17;;
52888;SDS011;41413;52.770;6.892;2023-07-24T04:56:19;325.88;;;310.52;;
52888;SDS011;41413;52.770;6.892;2023-07-24T04:58:46;330.38;;;315.20;;
52888;SDS011;41413;52.770;6.892;2023-07-24T05:01:13;336.73;;;321.17;;
52888;SDS011;41413;52.770;6.892;2023-07-24T05:03:39;341.15;;;325.50;;
52888;SDS011;41413;52.770;6.892;2023-07-24T05:06:06;354.27;;;337.10;;
52888;SDS011;41413;52.770;6.892;2023-07-24T05:08:33;349.60;;;333.27;;
52888;SDS011;41413;52.770;6.892;2023-07-24T05:10:59;354.65;;;337.70;;
52888;SDS011;41413;52.770;6.892;2023-07-24T05:13:26;307.08;;;292.83;;
52888;SDS011;41413;52.770;6.892;2023-07-24T05:15:53;338.27;;;322.52;;
52888;SDS011;41413;52.770;6.892;2023-07-24T05:18:20;347.38;;;331.00;;
52888;SDS011;41413;52.770;6.892;2023-07-24T05:20:47;303.05;;;288.25;;
52888;SDS011;41413;52.770;6.892;2023-07-24T05:23:15;347.70;;;331.23;;
52888;SDS011;41413;52.770;6.892;2023-07-24T05:25:41;346.25;;;330.08;;
52888;SDS011;41413;52.770;6.892;2023-07-24T05:28:09;319.10;;;304.38;;
52888;SDS011;41413;52.770;6.892;2023-07-24T05:30:36;351.92;;;335.33;;
52888;SDS011;41413;52.770;6.892;2023-07-24T05:33:03;363.83;;;346.58;;
52888;SDS011;41413;52.770;6.892;2023-07-24T05:35:30;332.00;;;316.05;;
52888;SDS011;41413;52.770;6.892;2023-07-24T05:37:56;328.50;;;312.80;;
52888;SDS011;41413;52.770;6.892;2023-07-24T05:40:23;358.50;;;341.55;;
52888;SDS011;41413;52.770;6.892;2023-07-24T05:42:50;343.48;;;327.58;;
52888;SDS011;41413;52.770;6.892;2023-07-24T05:45:17;358.08;;;341.00;;
52888;SDS011;41413;52.770;6.892;2023-07-24T05:47:44;353.90;;;337.30;;
52888;SDS011;41413;52.770;6.892;2023-07-24T05:50:10;349.30;;;332.80;;
52888;SDS011;41413;52.770;6.892;2023-07-24T05:52:40;345.10;;;329.25;;
52888;SDS011;41413;52.770;6.892;2023-07-24T05:55:07;357.10;;;340.42;;
52888;SDS011;41413;52.770;6.892;2023-07-24T05:57:34;329.80;;;314.27;;
52888;SDS011;41413;52.770;6.892;2023-07-24T06:00:05;340.83;;;324.58;;
52888;SDS011;41413;52.770;6.892;2023-07-24T06:02:32;340.67;;;324.92;;
52888;SDS011;41413;52.770;6.892;2023-07-24T06:04:59;332.45;;;316.83;;
52888;SDS011;41413;52.770;6.892;2023-07-24T06:07:26;324.55;;;309.27;;
52888;SDS011;41413;52.770;6.892;2023-07-24T06:09:53;345.75;;;329.40;;
52888;SDS011;41413;52.770;6.892;2023-07-24T06:12:20;317.95;;;302.98;;
52888;SDS011;41413;52.770;6.892;2023-07-24T06:14:47;354.50;;;337.48;;
52888;SDS011;41413;52.770;6.892;2023-07-24T06:17:13;282.55;;;268.95;;
52888;SDS011;41413;52.770;6.892;2023-07-24T06:19:40;328.95;;;313.48;;
52888;SDS011;41413;52.770;6.892;2023-07-24T06:22:07;347.67;;;331.52;;
52888;SDS011;41413;52.770;6.892;2023-07-24T06:24:34;345.95;;;329.65;;
52888;SDS011;41413;52.770;6.892;2023-07-24T06:27:00;362.70;;;345.85;;
52888;SDS011;41413;52.770;6.892;2023-07-24T06:29:27;340.38;;;324.83;;
52888;SDS011;41413;52.770;6.892;2023-07-24T06:31:54;334.45;;;318.65;;
52888;SDS011;41413;52.770;6.892;2023-07-24T06:34:21;327.10;;;312.23;;
52888;SDS011;41413;52.770;6.892;2023-07-24T06:36:48;275.75;;;262.77;;
52888;SDS011;41413;52.770;6.892;2023-07-24T06:39:15;301.83;;;287.75;;
52888;SDS011;41413;52.770;6.892;2023-07-24T06:41:42;343.48;;;327.42;;
52888;SDS011;41413;52.770;6.892;2023-07-24T06:44:09;312.20;;;297.25;;
52888;SDS011;41413;52.770;6.892;2023-07-24T06:46:35;354.05;;;337.85;;
52888;SDS011;41413;52.770;6.892;2023-07-24T06:49:02;295.73;;;281.85;;
52888;SDS011;41413;52.770;6.892;2023-07-24T06:51:29;337.52;;;321.52;;
52888;SDS011;41413;52.770;6.892;2023-07-24T06:53:56;292.77;;;278.92;;
52888;SDS011;41413;52.770;6.892;2023-07-24T06:56:22;347.05;;;330.77;;
52888;SDS011;41413;52.770;6.892;2023-07-24T06:58:49;291.38;;;277.40;;
52888;SDS011;41413;52.770;6.892;2023-07-24T07:01:16;331.63;;;315.95;;
52888;SDS011;41413;52.770;6.892;2023-07-24T07:03:43;305.55;;;291.35;;
52888;SDS011;41413;52.770;6.892;2023-07-24T07:06:10;293.55;;;279.30;;
52888;SDS011;41413;52.770;6.892;2023-07-24T07:08:53;304.65;;;290.17;;
52888;SDS011;41413;52.770;6.892;2023-07-24T07:11:20;344.38;;;327.90;;
52888;SDS011;41413;52.770;6.892;2023-07-24T07:13:47;324.95;;;309.48;;
52888;SDS011;41413;52.770;6.892;2023-07-24T07:16:13;321.20;;;305.92;;
52888;SDS011;41413;52.770;6.892;2023-07-24T07:18:43;343.60;;;327.20;;
52888;SDS011;41413;52.770;6.892;2023-07-24T07:21:10;336.92;;;320.55;;
52888;SDS011;41413;52.770;6.892;2023-07-24T07:23:36;351.30;;;333.98;;
52888;SDS011;41413;52.770;6.892;2023-07-24T07:26:03;310.48;;;295.20;;
52888;SDS011;41413;52.770;6.892;2023-07-24T07:28:30;344.35;;;328.15;;
52888;SDS011;41413;52.770;6.892;2023-07-24T07:30:57;273.48;;;260.52;;
52888;SDS011;41413;52.770;6.892;2023-07-24T07:33:23;326.08;;;310.77;;
52888;SDS011;41413;52.770;6.892;2023-07-24T07:35:51;343.67;;;327.08;;
52888;SDS011;41413;52.770;6.892;2023-07-24T07:38:18;337.95;;;322.05;;
52888;SDS011;41413;52.770;6.892;2023-07-24T07:40:45;267.63;;;254.70;;
52888;SDS011;41413;52.770;6.892;2023-07-24T07:43:11;289.73;;;275.77;;
52888;SDS011;41413;52.770;6.892;2023-07-24T07:45:38;315.50;;;300.63;;
52888;SDS011;41413;52.770;6.892;2023-07-24T07:48:05;322.02;;;306.60;;
52888;SDS011;41413;52.770;6.892;2023-07-24T07:50:32;271.80;;;258.33;;
52888;SDS011;41413;52.770;6.892;2023-07-24T07:52:58;285.17;;;271.80;;
52888;SDS011;41413;52.770;6.892;2023-07-24T07:55:26;269.40;;;256.17;;
52888;SDS011;41413;52.770;6.892;2023-07-24T07:57:52;308.23;;;293.15;;
52888;SDS011;41413;52.770;6.892;2023-07-24T08:00:19;247.25;;;235.23;;
52888;SDS011;41413;52.770;6.892;2023-07-24T08:02:46;257.80;;;244.60;;
52888;SDS011;41413;52.770;6.892;2023-07-24T08:05:13;285.27;;;271.05;;
52888;SDS011;41413;52.770;6.892;2023-07-24T08:07:46;201.13;;;191.07;;
52888;SDS011;41413;52.770;6.892;2023-07-24T08:10:13;219.35;;;208.32;;
52888;SDS011;41413;52.770;6.892;2023-07-24T08:12:43;218.25;;;207.38;;
52888;SDS011;41413;52.770;6.892;2023-07-24T08:15:10;195.43;;;185.57;;
52888;SDS011;41413;52.770;6.892;2023-07-24T08:17:37;124.13;;;117.47;;
52888;SDS011;41413;52.770;6.892;2023-07-24T08:20:04;240.88;;;228.73;;
52888;SDS011;41413;52.770;6.892;2023-07-24T08:22:31;181.05;;;171.80;;
52888;SDS011;41413;52.770;6.892;2023-07-24T08:24:58;221.40;;;210.07;;
52888;SDS011;41413;52.770;6.892;2023-07-24T08:27:25;204.13;;;193.52;;
52888;SDS011;41413;52.770;6.892;2023-07-24T08:29:52;208.68;;;197.82;;
52888;SDS011;41413;52.770;6.892;2023-07-24T08:32:19;92.57;;;87.38;;
52888;SDS011;41413;52.770;6.892;2023-07-24T08:34:46;180.63;;;171.20;;
52888;SDS011;41413;52.770;6.892;2023-07-24T08:37:13;232.85;;;220.82;;
52888;SDS011;41413;52.770;6.892;2023-07-24T08:39:40;216.68;;;205.52;;
52888;SDS011;41413;52.770;6.892;2023-07-24T08:42:08;205.80;;;195.20;;
52888;SDS011;41413;52.770;6.892;2023-07-24T08:44:36;145.40;;;137.75;;
52888;SDS011;41413;52.770;6.892;2023-07-24T08:47:06;115.45;;;109.28;;
52888;SDS011;41413;52.770;6.892;2023-07-24T08:49:38;121.05;;;115.03;;
52888;SDS011;41413;52.770;6.892;2023-07-24T08:52:08;159.18;;;150.95;;
52888;SDS011;41413;52.770;6.892;2023-07-24T08:54:48;161.77;;;153.15;;
52888;SDS011;41413;52.770;6.892;2023-07-24T08:57:16;229.52;;;217.57;;
52888;SDS011;41413;52.770;6.892;2023-07-24T08:59:43;166.10;;;157.20;;
52888;SDS011;41413;52.770;6.892;2023-07-24T09:02:10;75.35;;;71.80;;
52888;SDS011;41413;52.770;6.892;2023-07-24T09:04:37;115.20;;;109.13;;
52888;SDS011;41413;52.770;6.892;2023-07-24T09:07:04;76.38;;;72.32;;
52888;SDS011;41413;52.770;6.892;2023-07-24T09:09:33;52.38;;;49.55;;
52888;SDS011;41413;52.770;6.892;2023-07-24T09:12:00;51.83;;;49.05;;
52888;SDS011;41413;52.770;6.892;2023-07-24T09:14:27;61.03;;;57.70;;
52888;SDS011;41413;52.770;6.892;2023-07-24T09:17:01;46.72;;;44.30;;
52888;SDS011;41413;52.770;6.892;2023-07-24T09:19:35;47.22;;;44.60;;
52888;SDS011;41413;52.770;6.892;2023-07-24T09:22:12;47.60;;;44.95;;
52888;SDS011;41413;52.770;6.892;2023-07-24T09:24:50;48.78;;;46.20;;
52888;SDS011;41413;52.770;6.892;2023-07-24T09:27:18;74.82;;;71.20;;
52888;SDS011;41413;52.770;6.892;2023-07-24T09:29:46;62.17;;;59.22;;
52888;SDS011;41413;52.770;6.892;2023-07-24T09:32:19;67.75;;;63.85;;
52888;SDS011;41413;52.770;6.892;2023-07-24T09:34:47;67.28;;;63.85;;
52888;SDS011;41413;52.770;6.892;2023-07-24T09:39:54;64.13;;;60.75;;
52888;SDS011;41413;52.770;6.892;2023-07-24T09:42:54;46.78;;;44.25;;
52888;SDS011;41413;52.770;6.892;2023-07-24T09:45:34;40.08;;;38.00;;
52888;SDS011;41413;52.770;6.892;2023-07-24T09:48:11;42.08;;;39.97;;
52888;SDS011;41413;52.770;6.892;2023-07-24T09:51:00;41.65;;;39.75;;
52888;SDS011;41413;52.770;6.892;2023-07-24T09:56:06;42.03;;;39.38;;
52888;SDS011;41413;52.770;6.892;2023-07-24T09:58:38;43.30;;;41.10;;
52888;SDS011;41413;52.770;6.892;2023-07-24T10:01:07;40.38;;;38.40;;
52888;SDS011;41413;52.770;6.892;2023-07-24T10:03:39;48.58;;;46.08;;
52888;SDS011;41413;52.770;6.892;2023-07-24T10:06:11;49.15;;;46.65;;
52888;SDS011;41413;52.770;6.892;2023-07-24T10:08:41;61.38;;;58.08;;
52888;SDS011;41413;52.770;6.892;2023-07-24T10:11:08;50.97;;;48.60;;
52888;SDS011;41413;52.770;6.892;2023-07-24T10:13:37;44.58;;;42.35;;
52888;SDS011;41413;52.770;6.892;2023-07-24T10:16:05;40.08;;;37.95;;
52888;SDS011;41413;52.770;6.892;2023-07-24T10:18:41;48.63;;;46.05;;
52888;SDS011;41413;52.770;6.892;2023-07-24T10:21:11;42.78;;;40.83;;
52888;SDS011;41413;52.770;6.892;2023-07-24T10:23:43;41.15;;;38.10;;
52888;SDS011;41413;52.770;6.892;2023-07-24T10:26:12;42.35;;;40.33;;
52888;SDS011;41413;52.770;6.892;2023-07-24T10:28:42;38.33;;;36.60;;
52888;SDS011;41413;52.770;6.892;2023-07-24T10:31:18;37.30;;;35.28;;
52888;SDS011;41413;52.770;6.892;2023-07-24T10:33:50;43.47;;;40.97;;
52888;SDS011;41413;52.770;6.892;2023-07-24T10:36:18;37.45;;;35.45;;
52888;SDS011;41413;52.770;6.892;2023-07-24T10:38:51;41.10;;;39.10;;
52888;SDS011;41413;52.770;6.892;2023-07-24T10:41:19;39.33;;;37.30;;
52888;SDS011;41413;52.770;6.892;2023-07-24T10:43:47;40.15;;;38.20;;
52888;SDS011;41413;52.770;6.892;2023-07-24T10:46:18;42.42;;;40.33;;
52888;SDS011;41413;52.770;6.892;2023-07-24T10:48:47;42.50;;;40.22;;
52888;SDS011;41413;52.770;6.892;2023-07-24T10:51:14;41.83;;;39.63;;
52888;SDS011;41413;52.770;6.892;2023-07-24T10:53:43;40.22;;;37.95;;
52888;SDS011;41413;52.770;6.892;2023-07-24T10:56:12;41.08;;;38.95;;
52888;SDS011;41413;52.770;6.892;2023-07-24T10:58:39;36.75;;;34.97;;
52888;SDS011;41413;52.770;6.892;2023-07-24T11:01:06;39.95;;;37.85;;
52888;SDS011;41413;52.770;6.892;2023-07-24T11:03:37;43.20;;;40.42;;
52888;SDS011;41413;52.770;6.892;2023-07-24T11:06:10;35.33;;;33.42;;
52888;SDS011;41413;52.770;6.892;2023-07-24T11:08:42;32.97;;;31.30;;
52888;SDS011;41413;52.770;6.892;2023-07-24T11:11:31;33.85;;;32.03;;
52888;SDS011;41413;52.770;6.892;2023-07-24T11:14:03;32.45;;;30.75;;
52888;SDS011;41413;52.770;6.892;2023-07-24T11:16:30;29.42;;;27.88;;
52888;SDS011;41413;52.770;6.892;2023-07-24T11:18:59;31.20;;;29.40;;
52888;SDS011;41413;52.770;6.892;2023-07-24T11:21:26;28.27;;;26.77;;
52888;SDS011;41413;52.770;6.892;2023-07-24T11:23:56;29.67;;;28.27;;
52888;SDS011;41413;52.770;6.892;2023-07-24T11:26:23;29.38;;;27.83;;
52888;SDS011;41413;52.770;6.892;2023-07-24T11:28:51;29.92;;;28.42;;
52888;SDS011;41413;52.770;6.892;2023-07-24T11:31:18;30.33;;;28.60;;
52888;SDS011;41413;52.770;6.892;2023-07-24T11:33:47;34.97;;;32.97;;
52888;SDS011;41413;52.770;6.892;2023-07-24T11:36:15;30.88;;;29.20;;
52888;SDS011;41413;52.770;6.892;2023-07-24T11:38:44;32.30;;;30.17;;
52888;SDS011;41413;52.770;6.892;2023-07-24T11:41:11;33.05;;;31.25;;
52888;SDS011;41413;52.770;6.892;2023-07-24T11:43:45;31.85;;;29.80;;
52888;SDS011;41413;52.770;6.892;2023-07-24T11:46:22;30.20;;;28.27;;
52888;SDS011;41413;52.770;6.892;2023-07-24T11:48:50;29.75;;;28.15;;
52888;SDS011;41413;52.770;6.892;2023-07-24T11:51:19;29.17;;;27.52;;
52888;SDS011;41413;52.770;6.892;2023-07-24T11:53:46;33.28;;;31.67;;
52888;SDS011;41413;52.770;6.892;2023-07-24T11:56:14;38.30;;;36.20;;
52888;SDS011;41413;52.770;6.892;2023-07-24T11:58:42;33.67;;;31.98;;
52888;SDS011;41413;52.770;6.892;2023-07-24T12:01:08;31.92;;;30.23;;
52888;SDS011;41413;52.770;6.892;2023-07-24T12:03:36;33.63;;;31.90;;
52888;SDS011;41413;52.770;6.892;2023-07-24T12:06:03;36.03;;;34.13;;
52888;SDS011;41413;52.770;6.892;2023-07-24T12:08:31;32.20;;;30.50;;
52888;SDS011;41413;52.770;6.892;2023-07-24T12:10:59;34.92;;;33.08;;
52888;SDS011;41413;52.770;6.892;2023-07-24T12:13:27;39.40;;;37.42;;
52888;SDS011;41413;52.770;6.892;2023-07-24T12:15:54;42.85;;;40.80;;
52888;SDS011;41413;52.770;6.892;2023-07-24T12:18:21;41.63;;;39.58;;
52888;SDS011;41413;52.770;6.892;2023-07-24T12:20:48;45.67;;;43.40;;
52888;SDS011;41413;52.770;6.892;2023-07-24T12:23:15;39.72;;;37.17;;
52888;SDS011;41413;52.770;6.892;2023-07-24T12:25:43;43.83;;;41.33;;
52888;SDS011;41413;52.770;6.892;2023-07-24T12:28:10;43.85;;;41.30;;
52888;SDS011;41413;52.770;6.892;2023-07-24T12:30:36;43.15;;;41.05;;
52888;SDS011;41413;52.770;6.892;2023-07-24T12:33:03;42.40;;;40.13;;
52888;SDS011;41413;52.770;6.892;2023-07-24T12:35:30;44.17;;;41.80;;
52888;SDS011;41413;52.770;6.892;2023-07-24T12:37:57;39.72;;;37.55;;
52888;SDS011;41413;52.770;6.892;2023-07-24T12:40:25;38.10;;;36.20;;
52888;SDS011;41413;52.770;6.892;2023-07-24T12:42:51;38.00;;;36.20;;
52888;SDS011;41413;52.770;6.892;2023-07-24T12:45:18;34.38;;;32.80;;
52888;SDS011;41413;52.770;6.892;2023-07-24T12:47:45;37.80;;;35.85;;
52888;SDS011;41413;52.770;6.892;2023-07-24T12:50:12;37.90;;;35.85;;
52888;SDS011;41413;52.770;6.892;2023-07-24T12:52:39;37.40;;;35.60;;
52888;SDS011;41413;52.770;6.892;2023-07-24T12:55:07;40.78;;;38.83;;
52888;SDS011;41413;52.770;6.892;2023-07-24T12:57:34;34.70;;;32.97;;
52888;SDS011;41413;52.770;6.892;2023-07-24T13:00:01;33.95;;;31.95;;
52888;SDS011;41413;52.770;6.892;2023-07-24T13:02:27;33.70;;;31.90;;
52888;SDS011;41413;52.770;6.892;2023-07-24T13:04:54;36.92;;;35.13;;
52888;SDS011;41413;52.770;6.892;2023-07-24T13:07:21;33.00;;;31.27;;
52888;SDS011;41413;52.770;6.892;2023-07-24T13:09:48;35.10;;;33.38;;
52888;SDS011;41413;52.770;6.892;2023-07-24T13:12:15;33.97;;;32.15;;
52888;SDS011;41413;52.770;6.892;2023-07-24T13:14:41;34.00;;;32.38;;
52888;SDS011;41413;52.770;6.892;2023-07-24T13:17:09;32.58;;;30.70;;
52888;SDS011;41413;52.770;6.892;2023-07-24T13:19:35;35.78;;;33.55;;
52888;SDS011;41413;52.770;6.892;2023-07-24T13:22:02;35.28;;;33.40;;
52888;SDS011;41413;52.770;6.892;2023-07-24T13:24:29;41.67;;;39.50;;
52888;SDS011;41413;52.770;6.892;2023-07-24T13:26:56;32.28;;;30.58;;
52888;SDS011;41413;52.770;6.892;2023-07-24T13:29:23;33.75;;;31.92;;
52888;SDS011;41413;52.770;6.892;2023-07-24T13:31:51;31.38;;;29.83;;
52888;SDS011;41413;52.770;6.892;2023-07-24T13:34:18;35.13;;;33.53;;
52888;SDS011;41413;52.770;6.892;2023-07-24T13:36:46;34.50;;;32.65;;
52888;SDS011;41413;52.770;6.892;2023-07-24T13:39:13;34.80;;;32.95;;
52888;SDS011;41413;52.770;6.892;2023-07-24T13:41:40;31.42;;;29.70;;
52888;SDS011;41413;52.770;6.892;2023-07-24T13:44:07;36.03;;;34.17;;
52888;SDS011;41413;52.770;6.892;2023-07-24T13:46:34;34.58;;;32.20;;
52888;SDS011;41413;52.770;6.892;2023-07-24T13:49:05;30.30;;;28.35;;
52888;SDS011;41413;52.770;6.892;2023-07-24T13:51:32;34.15;;;32.35;;
52888;SDS011;41413;52.770;6.892;2023-07-24T13:53:59;37.08;;;35.05;;
52888;SDS011;41413;52.770;6.892;2023-07-24T13:56:28;33.97;;;32.40;;
52888;SDS011;41413;52.770;6.892;2023-07-24T13:58:57;38.45;;;36.55;;
52888;SDS011;41413;52.770;6.892;2023-07-24T14:01:24;33.97;;;32.45;;
52888;SDS011;41413;52.770;6.892;2023-07-24T14:03:51;40.35;;;38.47;;
52888;SDS011;41413;52.770;6.892;2023-07-24T14:06:18;40.25;;;38.38;;
52888;SDS011;41413;52.770;6.892;2023-07-24T14:08:45;46.10;;;43.70;;
52888;SDS011;41413;52.770;6.892;2023-07-24T14:11:12;52.15;;;48.90;;
52888;SDS011;41413;52.770;6.892;2023-07-24T14:13:38;56.97;;;54.20;;
52888;SDS011;41413;52.770;6.892;2023-07-24T14:16:05;66.10;;;63.05;;
52888;SDS011;41413;52.770;6.892;2023-07-24T14:18:32;68.88;;;65.05;;
52888;SDS011;41413;52.770;6.892;2023-07-24T14:20:58;71.30;;;67.78;;